createdAt,value
2019-04-11T00:01:04.111Z,9.60
2019-04-11T00:03:33.500Z,10.60
2019-04-11T00:06:03.297Z,25.87
2019-04-11T00:08:32.634Z,12.67
2019-04-11T00:11:01.797Z,7.80
2019-04-11T00:13:33.346Z,9.70
2019-04-11T00:16:01.357Z,12.03
2019-04-11T00:18:30.381Z,11.93
2019-04-11T00:21:00.229Z,13.50
2019-04-11T00:23:30.242Z,14.90
2019-04-11T00:26:00.077Z,17.20
2019-04-11T00:28:29.930Z,11.20
2019-04-11T00:30:58.883Z,11.17
2019-04-11T00:33:27.719Z,14.30
2019-04-11T00:35:57.724Z,7.97
2019-04-11T00:38:26.969Z,12.47
2019-04-11T00:40:55.802Z,6.83
2019-04-11T00:43:31.762Z,10.75
2019-04-11T00:45:56.035Z,12.55
2019-04-11T00:48:25.845Z,13.10
2019-04-11T00:50:55.948Z,7.90
2019-04-11T00:53:25.694Z,11.37
2019-04-11T00:55:55.641Z,12.00
2019-04-11T00:58:25.565Z,9.90
2019-04-11T01:00:55.568Z,9.10
2019-04-11T01:03:24.465Z,8.07
2019-04-11T01:05:54.168Z,8.10
2019-04-11T01:08:24.597Z,7.07
2019-04-11T01:10:55.173Z,9.30
2019-04-11T01:13:24.078Z,6.07
2019-04-11T01:16:00.741Z,6.67
2019-04-11T01:18:29.924Z,6.40
2019-04-11T01:20:59.778Z,6.07
2019-04-11T01:23:29.162Z,6.90
2019-04-11T01:25:59.011Z,6.03
2019-04-11T01:28:28.909Z,5.87
2019-04-11T01:31:09.456Z,8.08
2019-04-11T01:33:38.353Z,7.10
2019-04-11T01:36:07.567Z,6.70
2019-04-11T01:38:38.716Z,6.92
2019-04-11T01:41:07.605Z,7.20
2019-04-11T01:43:36.463Z,6.00
2019-04-11T01:46:05.672Z,4.92
2019-04-11T01:48:39.625Z,6.60
2019-04-11T01:51:09.630Z,10.72
2019-04-11T01:53:39.480Z,6.40
2019-04-11T01:56:09.339Z,6.60
2019-04-11T01:58:38.480Z,6.00
2019-04-11T02:01:08.985Z,6.00
2019-04-11T02:03:45.597Z,6.77
2019-04-11T02:06:14.496Z,5.50
2019-04-11T02:08:43.869Z,7.20
2019-04-11T02:11:13.061Z,5.80
2019-04-11T02:13:41.958Z,6.33
2019-04-11T02:16:10.877Z,5.20
2019-04-11T02:18:39.667Z,7.00
2019-04-11T02:21:09.385Z,7.60
2019-04-11T02:23:48.689Z,5.50
2019-04-11T02:26:22.021Z,5.57
2019-04-11T02:28:50.926Z,5.50
2019-04-11T02:31:22.148Z,4.83
2019-04-11T02:33:51.082Z,5.50
2019-04-11T02:36:20.811Z,5.28
2019-04-11T02:38:55.204Z,5.77
2019-04-11T02:41:21.084Z,4.87
2019-04-11T02:43:50.920Z,10.13
2019-04-11T02:46:31.946Z,5.73
2019-04-11T02:48:52.049Z,6.62
2019-04-11T02:51:22.700Z,5.27
2019-04-11T02:53:54.940Z,6.33
2019-04-11T02:56:25.612Z,7.27
2019-04-11T02:58:54.720Z,5.73
2019-04-11T03:01:24.253Z,5.10
2019-04-11T03:03:54.616Z,4.97
2019-04-11T03:06:25.829Z,5.10
2019-04-11T03:08:55.095Z,6.63
2019-04-11T03:11:26.057Z,6.00
2019-04-11T03:13:55.692Z,3.60
2019-04-11T03:16:35.389Z,5.17
2019-04-11T03:19:13.042Z,6.07
2019-04-11T03:21:26.836Z,7.17
2019-04-11T03:23:56.311Z,6.80
2019-04-11T03:26:26.945Z,5.53
2019-04-11T03:28:57.354Z,7.97
2019-04-11T03:32:05.290Z,5.43
2019-04-11T03:35:02.953Z,6.15
2019-04-11T03:39:14.821Z,7.00
2019-04-11T03:41:50.713Z,5.20
2019-04-11T03:44:09.911Z,5.60
2019-04-11T03:46:48.297Z,8.77
2019-04-11T03:49:16.560Z,6.55
2019-04-11T03:51:33.838Z,6.13
2019-04-11T03:54:02.800Z,5.00
2019-04-11T03:56:33.044Z,6.13
2019-04-11T03:59:03.815Z,6.57
2019-04-11T04:01:34.052Z,4.80
2019-04-11T04:04:03.577Z,4.00
2019-04-11T04:06:33.155Z,10.00
2019-04-11T04:09:03.163Z,5.37
2019-04-11T04:11:34.261Z,6.10
2019-04-11T04:14:08.187Z,5.77
2019-04-11T04:16:46.835Z,12.53
2019-04-11T04:19:15.743Z,8.27
2019-04-11T04:21:48.917Z,7.90
2019-04-11T04:24:32.129Z,9.87
2019-04-11T04:27:01.751Z,5.53
2019-04-11T04:29:32.086Z,6.30
2019-04-11T04:32:02.619Z,4.72
2019-04-11T04:34:31.809Z,5.90
2019-04-11T04:37:03.570Z,4.47
2019-04-11T04:39:34.553Z,6.30
2019-04-11T04:42:11.142Z,9.13
2019-04-11T04:44:35.500Z,6.07
2019-04-11T04:47:14.674Z,7.57
2019-04-11T04:49:36.426Z,5.53
2019-04-11T04:52:06.092Z,6.13
2019-04-11T04:54:36.479Z,6.63
2019-04-11T04:57:08.526Z,8.23
2019-04-11T04:59:37.696Z,6.70
2019-04-11T05:02:08.209Z,9.63
2019-04-11T05:04:38.306Z,8.10
2019-04-11T05:07:09.562Z,6.93
2019-04-11T05:09:40.695Z,14.75
2019-04-11T05:12:09.884Z,5.50
2019-04-11T05:14:39.309Z,8.33
2019-04-11T05:17:08.763Z,4.33
2019-04-11T05:19:38.364Z,6.80
2019-04-11T05:22:08.466Z,8.60
2019-04-11T05:24:37.373Z,6.45
2019-04-11T05:27:06.403Z,6.53
2019-04-11T05:29:35.617Z,6.40
2019-04-11T05:32:05.201Z,9.10
2019-04-11T05:34:35.121Z,6.57
2019-04-11T05:37:04.045Z,10.03
2019-04-11T05:39:33.903Z,8.87
2019-04-11T05:42:03.156Z,6.17
2019-04-11T05:44:32.640Z,6.50
2019-04-11T05:47:03.476Z,11.83
2019-04-11T05:49:37.203Z,8.73
2019-04-11T05:52:06.086Z,6.42
2019-04-11T05:54:41.194Z,7.50
2019-04-11T05:57:07.709Z,8.43
2019-04-11T05:59:37.389Z,6.62
2019-04-11T06:02:17.195Z,7.17
2019-04-11T06:04:51.988Z,7.17
2019-04-11T06:07:41.011Z,6.80
2019-04-11T06:10:14.738Z,6.50
2019-04-11T06:12:48.107Z,6.27
2019-04-11T06:15:19.985Z,8.20
2019-04-11T06:17:50.402Z,8.43
2019-04-11T06:20:37.582Z,7.87
2019-04-11T06:23:08.039Z,8.80
2019-04-11T06:25:43.078Z,8.97
2019-04-11T06:28:11.535Z,11.07
2019-04-11T06:30:42.342Z,10.60
2019-04-11T06:33:16.486Z,5.77
2019-04-11T06:35:48.319Z,10.07
2019-04-11T06:38:35.171Z,11.07
2019-04-11T06:41:17.384Z,8.47
2019-04-11T06:44:00.522Z,14.33
2019-04-11T06:46:31.389Z,7.60
2019-04-11T06:49:07.313Z,10.50
2019-04-11T06:51:56.763Z,11.77
2019-04-11T06:54:39.272Z,8.80
2019-04-11T06:57:16.021Z,11.13
2019-04-11T06:59:46.510Z,14.30
2019-04-11T07:02:19.540Z,17.17
2019-04-11T07:04:51.662Z,10.50
2019-04-11T07:07:22.000Z,15.43
2019-04-11T07:09:53.533Z,17.10
2019-04-11T07:12:30.755Z,9.03
2019-04-11T07:15:04.503Z,14.10
2019-04-11T07:17:52.456Z,15.10
2019-04-11T07:20:32.063Z,17.35
2019-04-11T07:23:20.044Z,13.67
2019-04-11T07:25:51.659Z,11.67
2019-04-11T07:28:25.242Z,10.87
2019-04-11T07:31:08.153Z,10.97
2019-04-11T07:33:56.207Z,11.33
2019-04-11T07:36:43.926Z,12.47
2019-04-11T07:39:14.632Z,11.70
2019-04-11T07:41:45.605Z,14.70
2019-04-11T07:44:17.593Z,13.20
2019-04-11T07:47:13.701Z,13.73
2019-04-11T07:49:35.114Z,20.53
2019-04-11T07:52:08.977Z,13.27
2019-04-11T07:54:38.880Z,11.70
2019-04-11T07:57:26.330Z,16.70
2019-04-11T08:00:00.108Z,8.55
2019-04-11T08:02:31.318Z,7.17
2019-04-11T08:05:11.078Z,10.33
2019-04-11T08:07:47.410Z,16.20
2019-04-11T08:10:23.668Z,9.53
2019-04-11T08:12:54.297Z,8.27
2019-04-11T08:15:39.973Z,9.10
2019-04-11T08:18:10.452Z,8.20
2019-04-11T08:20:57.431Z,14.63
2019-04-11T08:23:27.702Z,10.77
2019-04-11T08:25:58.155Z,7.20
2019-04-11T08:28:26.997Z,5.75
2019-04-11T08:31:15.089Z,15.72
2019-04-11T08:33:44.072Z,12.58
2019-04-11T08:36:20.065Z,8.27
2019-04-11T08:38:48.901Z,7.47
2019-04-11T08:41:23.188Z,12.43
2019-04-11T08:43:53.218Z,6.65
2019-04-11T08:46:29.453Z,12.23
2019-04-11T08:49:06.283Z,11.10
2019-04-11T08:51:36.302Z,9.08
2019-04-11T08:54:24.307Z,7.53
2019-04-11T08:56:53.620Z,7.85
2019-04-11T08:59:35.914Z,10.25
2019-04-11T09:02:06.861Z,12.53
2019-04-11T09:04:50.314Z,14.33
2019-04-11T09:07:23.299Z,13.28
2019-04-11T09:10:09.756Z,8.13
2019-04-11T09:12:40.126Z,11.97
2019-04-11T09:15:28.735Z,11.57
2019-04-11T09:18:04.192Z,17.03
2019-04-11T09:20:33.960Z,5.90
2019-04-11T09:23:03.767Z,6.62
2019-04-11T09:25:34.955Z,9.88
2019-04-11T09:28:17.750Z,8.35
2019-04-11T09:31:07.751Z,5.90
2019-04-11T09:33:53.172Z,7.03
2019-04-11T09:36:40.895Z,8.33
2019-04-11T09:39:17.701Z,4.78
2019-04-11T09:42:00.921Z,8.00
2019-04-11T09:44:31.496Z,7.45
2019-04-11T09:47:05.432Z,4.17
2019-04-11T09:49:39.601Z,6.33
2019-04-11T09:52:10.147Z,6.60
2019-04-11T09:54:52.719Z,11.70
2019-04-11T09:57:38.244Z,5.83
2019-04-11T10:00:10.183Z,6.92
2019-04-11T10:02:52.693Z,5.95
2019-04-11T10:05:26.483Z,4.53
2019-04-11T10:08:14.746Z,3.40
2019-04-11T10:11:00.189Z,9.73
2019-04-11T10:13:46.576Z,6.12
2019-04-11T10:16:26.266Z,6.00
2019-04-11T10:18:57.792Z,8.93
2019-04-11T10:21:28.976Z,3.12
2019-04-11T10:24:09.427Z,5.22
2019-04-11T10:26:40.370Z,5.10
2019-04-11T10:29:30.417Z,7.78
2019-04-11T10:31:59.662Z,3.65
2019-04-11T10:34:35.661Z,11.43
2019-04-11T10:37:05.323Z,6.97
2019-04-11T10:39:35.765Z,6.28
2019-04-11T10:42:12.611Z,4.72
2019-04-11T10:44:43.167Z,3.72
2019-04-11T10:47:14.494Z,6.42
2019-04-11T10:49:47.763Z,4.33
2019-04-11T10:52:18.250Z,8.93
2019-04-11T10:54:49.168Z,4.47
2019-04-11T10:57:31.952Z,7.53
2019-04-11T11:00:03.135Z,5.60
2019-04-11T11:02:49.394Z,14.15
2019-04-11T11:05:20.015Z,4.03
2019-04-11T11:07:48.957Z,3.50
2019-04-11T11:10:19.587Z,5.90
2019-04-11T11:13:05.637Z,6.25
2019-04-11T11:15:35.804Z,5.62
2019-04-11T11:18:43.570Z,3.67
2019-04-11T11:20:58.464Z,6.78
2019-04-11T11:23:42.854Z,3.30
2019-04-11T11:26:22.612Z,5.35
2019-04-11T11:28:51.376Z,6.50
2019-04-11T11:31:34.126Z,8.40
2019-04-11T11:34:03.282Z,5.78
2019-04-11T11:36:50.452Z,8.35
2019-04-11T11:39:33.479Z,7.87
2019-04-11T11:42:22.019Z,11.10
2019-04-11T11:44:53.128Z,11.40
2019-04-11T11:47:41.450Z,6.90
2019-04-11T11:50:18.799Z,4.67
2019-04-11T11:53:08.166Z,6.12
2019-04-11T11:55:35.940Z,5.80
2019-04-11T11:58:16.780Z,5.45
2019-04-11T12:00:42.780Z,7.92
2019-04-11T12:03:30.745Z,4.85
2019-04-11T12:06:00.906Z,9.15
2019-04-11T12:08:50.582Z,3.85
2019-04-11T12:11:18.790Z,4.72
2019-04-11T12:14:05.685Z,7.97
2019-04-11T12:16:59.563Z,4.80
2019-04-11T12:19:24.944Z,8.68
2019-04-11T12:21:56.471Z,9.08
2019-04-11T12:24:36.509Z,7.53
2019-04-11T12:27:16.471Z,8.58
2019-04-11T12:29:51.628Z,4.00
2019-04-11T12:32:34.734Z,5.00
2019-04-11T12:35:16.693Z,10.72
2019-04-11T12:37:51.821Z,9.10
2019-04-11T12:40:30.567Z,3.12
2019-04-11T12:43:00.943Z,6.10
2019-04-11T12:45:48.011Z,5.33
2019-04-11T12:48:16.853Z,4.30
2019-04-11T12:51:03.463Z,6.50
2019-04-11T12:53:32.319Z,6.58
2019-04-11T12:56:05.472Z,9.50
2019-04-11T12:58:38.593Z,8.78
2019-04-11T13:01:14.883Z,6.58
2019-04-11T13:04:02.212Z,5.22
2019-04-11T13:06:38.594Z,4.40
2019-04-11T13:09:26.848Z,6.60
2019-04-11T13:11:57.223Z,5.75
2019-04-11T13:14:27.634Z,7.60
2019-04-11T13:17:00.473Z,6.50
2019-04-11T13:19:47.437Z,7.97
2019-04-11T13:22:20.352Z,7.00
2019-04-11T13:25:06.203Z,7.40
2019-04-11T13:27:36.912Z,9.73
2019-04-11T13:30:20.975Z,47.55
2019-04-11T13:32:51.598Z,41.28
2019-04-11T13:35:24.947Z,12.45
2019-04-11T13:38:13.446Z,8.93
2019-04-11T13:40:46.709Z,31.80
2019-04-11T13:43:36.094Z,10.63
2019-04-11T13:46:22.547Z,8.30
2019-04-11T13:49:11.383Z,4.78
2019-04-11T13:51:58.218Z,7.20
2019-04-11T13:54:34.171Z,7.05
2019-04-11T13:57:21.013Z,4.58
2019-04-11T14:00:07.935Z,3.55
2019-04-11T14:02:51.045Z,9.70
2019-04-11T14:05:18.923Z,7.92
2019-04-11T14:07:52.247Z,4.28
2019-04-11T14:10:22.523Z,6.17
2019-04-11T14:12:52.965Z,7.00
2019-04-11T14:15:22.490Z,6.20
2019-04-11T14:17:52.856Z,6.55
2019-04-11T14:20:35.319Z,4.20
2019-04-11T14:23:06.584Z,3.98
2019-04-11T14:25:43.311Z,8.00
2019-04-11T14:28:13.691Z,3.95
2019-04-11T14:30:53.276Z,12.30
2019-04-11T14:33:25.135Z,5.97
2019-04-11T14:35:59.826Z,22.90
2019-04-11T14:38:46.503Z,7.17
2019-04-11T14:41:20.074Z,7.60
2019-04-11T14:43:53.478Z,8.03
2019-04-11T14:46:39.812Z,4.60
2019-04-11T14:49:10.487Z,9.93
2019-04-11T14:51:44.005Z,4.03
2019-04-11T14:54:18.256Z,7.33
2019-04-11T14:56:57.433Z,5.78
2019-04-11T14:59:30.692Z,7.60
2019-04-11T15:02:06.969Z,3.77
2019-04-11T15:04:37.349Z,8.05
2019-04-11T15:07:07.853Z,6.30
2019-04-11T15:09:54.542Z,4.17
2019-04-11T15:12:24.947Z,6.65
2019-04-11T15:14:58.190Z,5.35
2019-04-11T15:17:28.801Z,5.47
2019-04-11T15:20:02.358Z,8.35
2019-04-11T15:22:35.507Z,5.60
2019-04-11T15:25:10.205Z,12.00
2019-04-11T15:27:55.578Z,5.65
2019-04-11T15:30:35.267Z,6.28
2019-04-11T15:33:14.623Z,7.37
2019-04-11T15:35:45.079Z,7.20
2019-04-11T15:38:31.467Z,12.28
2019-04-11T15:41:01.900Z,10.13
2019-04-11T15:43:43.315Z,9.63
2019-04-11T15:46:28.103Z,11.22
2019-04-11T15:49:21.122Z,6.35
2019-04-11T15:51:46.916Z,7.58
2019-04-11T15:54:17.287Z,9.00
2019-04-11T15:56:53.923Z,12.30
2019-04-11T15:59:36.234Z,9.05
2019-04-11T16:02:12.048Z,4.40
2019-04-11T16:04:48.010Z,5.60
2019-04-11T16:07:37.822Z,8.63
2019-04-11T16:10:11.696Z,7.33
2019-04-11T16:12:55.714Z,12.03
2019-04-11T16:15:38.022Z,6.72
2019-04-11T16:18:20.587Z,4.83
2019-04-11T16:20:51.642Z,7.15
2019-04-11T16:23:25.895Z,7.35
2019-04-11T16:25:53.067Z,7.65
2019-04-11T16:28:35.826Z,13.35
2019-04-11T16:31:09.459Z,6.37
2019-04-11T16:33:46.267Z,8.20
2019-04-11T16:36:18.661Z,9.08
2019-04-11T16:38:49.809Z,5.20
2019-04-11T16:41:36.954Z,7.60
2019-04-11T16:44:18.397Z,10.13
2019-04-11T16:47:04.670Z,4.28
2019-04-11T16:49:33.471Z,8.50
2019-04-11T16:52:02.351Z,5.70
2019-04-11T16:54:31.140Z,5.80
2019-04-11T16:56:59.985Z,5.00
2019-04-11T16:59:28.771Z,6.42
2019-04-11T17:01:57.602Z,7.95
2019-04-11T17:04:26.590Z,4.25
2019-04-11T17:06:57.003Z,6.20
2019-04-11T17:09:27.366Z,4.35
2019-04-11T17:11:57.290Z,3.52
2019-04-11T17:14:28.239Z,6.62
2019-04-11T17:17:00.643Z,3.85
2019-04-11T17:19:27.134Z,4.47
2019-04-11T17:21:55.921Z,5.75
2019-04-11T17:24:24.966Z,3.75
2019-04-11T17:26:54.615Z,4.78
2019-04-11T17:29:24.943Z,6.47
2019-04-11T17:31:56.050Z,5.22
2019-04-11T17:34:24.409Z,4.83
2019-04-11T17:36:53.210Z,6.72
2019-04-11T17:39:22.061Z,4.30
2019-04-11T17:41:51.217Z,5.35
2019-04-11T17:44:20.037Z,7.37
2019-04-11T17:46:49.202Z,13.35
2019-04-11T17:49:18.273Z,5.62
2019-04-11T17:51:55.700Z,6.65
2019-04-11T17:54:17.836Z,4.65
2019-04-11T17:56:47.087Z,7.53
2019-04-11T17:59:16.403Z,12.78
2019-04-11T18:01:45.232Z,12.13
2019-04-11T18:04:14.157Z,6.37
2019-04-11T18:06:47.006Z,6.92
2019-04-11T18:09:13.935Z,9.23
2019-04-11T18:11:43.181Z,6.12
2019-04-11T18:14:11.943Z,10.40
2019-04-11T18:16:40.734Z,7.10
2019-04-11T18:19:09.880Z,8.88
2019-04-11T18:21:38.790Z,7.65
2019-04-11T18:24:07.988Z,6.50
2019-04-11T18:26:36.810Z,5.90
2019-04-11T18:29:05.598Z,9.15
2019-04-11T18:31:37.159Z,8.08
2019-04-11T18:34:05.986Z,7.28
2019-04-11T18:36:37.247Z,9.65
2019-04-11T18:39:07.359Z,13.70
2019-04-11T18:41:36.131Z,11.05
2019-04-11T18:44:05.264Z,17.52
2019-04-11T18:46:34.409Z,6.97
2019-04-11T18:49:03.317Z,6.90
2019-04-11T18:51:32.422Z,5.83
2019-04-11T18:54:01.256Z,5.60
2019-04-11T18:56:30.115Z,15.37
2019-04-11T18:58:58.901Z,8.03
2019-04-11T19:01:27.745Z,10.55
2019-04-11T19:03:56.653Z,13.10
2019-04-11T19:06:28.168Z,8.47
2019-04-11T19:08:55.960Z,8.05
2019-04-11T19:11:24.982Z,7.85
2019-04-11T19:13:53.775Z,11.08
2019-04-11T19:16:22.931Z,11.25
2019-04-11T19:18:51.736Z,6.53
2019-04-11T19:21:21.298Z,9.13
2019-04-11T19:23:50.109Z,10.90
2019-04-11T19:26:18.899Z,8.08
2019-04-11T19:28:49.268Z,9.10
2019-04-11T19:31:18.215Z,10.30
2019-04-11T19:33:47.030Z,13.15
2019-04-11T19:36:15.875Z,8.28
2019-04-11T19:38:44.725Z,14.63
2019-04-11T19:41:16.968Z,17.95
2019-04-11T19:43:44.019Z,8.63
2019-04-11T19:46:12.905Z,20.62
2019-04-11T19:48:42.084Z,15.38
2019-04-11T19:51:11.008Z,16.67
2019-04-11T19:53:39.938Z,14.47
2019-04-11T19:56:22.430Z,16.32
2019-04-11T19:58:51.442Z,13.65
2019-04-11T20:01:22.790Z,14.28
2019-04-11T20:03:53.786Z,10.00
2019-04-11T20:06:21.570Z,17.45
2019-04-11T20:08:50.368Z,11.60
2019-04-11T20:11:19.326Z,19.25
2019-04-11T20:13:48.158Z,16.40
2019-04-11T20:16:16.924Z,11.43
2019-04-11T20:18:51.293Z,13.70
2019-04-11T20:21:16.628Z,12.75
2019-04-11T20:23:45.339Z,18.17
2019-04-11T20:26:14.140Z,14.65
2019-04-11T20:28:43.256Z,12.15
2019-04-11T20:31:12.082Z,13.98
2019-04-11T20:33:40.946Z,15.30
2019-04-11T20:36:11.179Z,16.82
2019-04-11T20:38:40.443Z,19.02
2019-04-11T20:41:09.350Z,13.40
2019-04-11T20:43:38.168Z,13.45
2019-04-11T20:46:06.999Z,15.93
2019-04-11T20:48:35.843Z,18.92
2019-04-11T20:51:04.692Z,15.37
2019-04-11T20:53:36.751Z,22.03
2019-04-11T20:56:03.966Z,14.40
2019-04-11T20:58:32.806Z,15.10
2019-04-11T21:01:01.602Z,23.53
2019-04-11T21:03:30.723Z,17.23
2019-04-11T21:06:01.827Z,16.90
2019-04-11T21:08:32.884Z,16.87
2019-04-11T21:11:01.964Z,16.87
2019-04-11T21:13:31.343Z,17.10
2019-04-11T21:16:00.185Z,22.35
2019-04-11T21:18:28.990Z,21.70
2019-04-11T21:20:57.840Z,20.50
2019-04-11T21:23:29.447Z,14.33
2019-04-11T21:25:59.123Z,19.25
2019-04-11T21:28:30.048Z,21.85
2019-04-11T21:31:00.125Z,25.82
2019-04-11T21:33:29.201Z,26.17
2019-04-11T21:35:58.060Z,20.77
2019-04-11T21:38:28.081Z,19.37
2019-04-11T21:40:57.739Z,20.40
2019-04-11T21:43:26.537Z,18.57
2019-04-11T21:45:55.367Z,15.43
2019-04-11T21:48:24.816Z,24.63
2019-04-11T21:50:53.700Z,19.33
2019-04-11T21:53:22.453Z,20.83
2019-04-11T21:55:51.282Z,26.07
2019-04-11T21:58:20.476Z,19.50
2019-04-11T22:00:54.408Z,17.65
2019-04-11T22:03:24.343Z,26.23
2019-04-11T22:05:53.671Z,21.80
2019-04-11T22:08:22.497Z,14.90
2019-04-11T22:10:51.300Z,25.97
2019-04-11T22:13:20.142Z,16.50
2019-04-11T22:15:48.980Z,17.10
2019-04-11T22:18:17.793Z,16.20
2019-04-11T22:20:46.633Z,19.53
2019-04-11T22:23:15.816Z,16.20
2019-04-11T22:25:44.645Z,18.00
2019-04-11T22:28:13.376Z,14.43
2019-04-11T22:30:42.237Z,18.97
2019-04-11T22:33:15.433Z,16.47
2019-04-11T22:35:44.271Z,8.97
2019-04-11T22:38:13.097Z,12.82
2019-04-11T22:40:41.891Z,11.03
2019-04-11T22:43:22.748Z,13.43
2019-04-11T22:45:41.857Z,14.27
2019-04-11T22:48:10.771Z,19.57
2019-04-11T22:50:40.684Z,15.43
2019-04-11T22:53:12.844Z,11.27
2019-04-11T22:55:41.304Z,8.87
2019-04-11T22:58:13.957Z,9.53
2019-04-11T23:00:44.931Z,12.77
2019-04-11T23:03:19.229Z,13.67
2019-04-11T23:05:48.070Z,8.83
2019-04-11T23:08:19.059Z,14.70
2019-04-11T23:10:47.453Z,10.10
2019-04-11T23:13:16.412Z,13.53
2019-04-11T23:15:45.351Z,8.67
2019-04-11T23:18:14.709Z,12.67
2019-04-11T23:20:44.689Z,10.23
2019-04-11T23:23:14.133Z,10.40
2019-04-11T23:25:43.011Z,13.30
2019-04-11T23:28:15.646Z,10.83
2019-04-11T23:30:42.440Z,10.32
2019-04-11T23:33:11.636Z,12.80
2019-04-11T23:35:40.453Z,7.70
2019-04-11T23:38:09.269Z,6.27
2019-04-11T23:40:38.034Z,8.20
2019-04-11T23:43:06.834Z,7.67
2019-04-11T23:45:35.631Z,10.33
2019-04-11T23:48:04.473Z,7.60
2019-04-11T23:50:33.272Z,9.40
2019-04-11T23:53:02.102Z,9.93
2019-04-11T23:55:30.978Z,12.10
2019-04-11T23:58:01.594Z,24.77
